sensor_id;sensor_type;location;lat;lon;timestamp;P1;durP1;ratioP1;P2;durP2;ratioP2
27367;SDS011;14839;48.106;11.618;2023-11-18T05:01:34;2.00;;;1.60;;
27367;SDS011;14839;48.106;11.618;2023-11-18T05:03:59;1.67;;;1.40;;
27367;SDS011;14839;48.106;11.618;2023-11-18T05:06:25;3.87;;;1.43;;
27367;SDS011;14839;48.106;11.618;2023-11-18T05:08:51;2.10;;;1.47;;
27367;SDS011;14839;48.106;11.618;2023-11-18T05:11:17;3.13;;;1.70;;
27367;SDS011;14839;48.106;11.618;2023-11-18T05:13:43;3.73;;;1.60;;
27367;SDS011;14839;48.106;11.618;2023-11-18T05:16:09;3.47;;;1.70;;
27367;SDS011;14839;48.106;11.618;2023-11-18T05:18:37;2.57;;;1.77;;
27367;SDS011;14839;48.106;11.618;2023-11-18T05:21:04;2.83;;;1.97;;
27367;SDS011;14839;48.106;11.618;2023-11-18T05:23:30;2.70;;;1.90;;
27367;SDS011;14839;48.106;11.618;2023-11-18T05:25:56;2.30;;;1.40;;
27367;SDS011;14839;48.106;11.618;2023-11-18T05:28:23;2.47;;;1.80;;
27367;SDS011;14839;48.106;11.618;2023-11-18T05:30:49;2.67;;;1.70;;
27367;SDS011;14839;48.106;11.618;2023-11-18T05:33:15;1.97;;;1.53;;
27367;SDS011;14839;48.106;11.618;2023-11-18T05:35:43;3.07;;;1.70;;
27367;SDS011;14839;48.106;11.618;2023-11-18T05:38:14;2.60;;;1.83;;
27367;SDS011;14839;48.106;11.618;2023-11-18T05:40:43;2.47;;;1.77;;
27367;SDS011;14839;48.106;11.618;2023-11-18T05:43:19;2.20;;;1.60;;
27367;SDS011;14839;48.106;11.618;2023-11-18T05:45:46;2.90;;;1.97;;
27367;SDS011;14839;48.106;11.618;2023-11-18T05:48:31;3.17;;;1.70;;
27367;SDS011;14839;48.106;11.618;2023-11-18T05:50:57;2.60;;;1.80;;
27367;SDS011;14839;48.106;11.618;2023-11-18T05:53:22;2.00;;;1.60;;
27367;SDS011;14839;48.106;11.618;2023-11-18T05:55:48;2.17;;;1.47;;
27367;SDS011;14839;48.106;11.618;2023-11-18T05:58:14;2.30;;;1.73;;
27367;SDS011;14839;48.106;11.618;2023-11-18T06:00:40;2.63;;;1.60;;
27367;SDS011;14839;48.106;11.618;2023-11-18T06:03:06;2.60;;;1.40;;
27367;SDS011;14839;48.106;11.618;2023-11-18T06:05:31;3.03;;;1.60;;
27367;SDS011;14839;48.106;11.618;2023-11-18T06:07:59;5.03;;;2.07;;
27367;SDS011;14839;48.106;11.618;2023-11-18T06:10:25;2.63;;;1.50;;
27367;SDS011;14839;48.106;11.618;2023-11-18T06:12:51;2.17;;;1.50;;
27367;SDS011;14839;48.106;11.618;2023-11-18T06:15:18;1.83;;;1.30;;
27367;SDS011;14839;48.106;11.618;2023-11-18T06:17:44;2.10;;;1.57;;
27367;SDS011;14839;48.106;11.618;2023-11-18T06:20:09;2.27;;;1.47;;
27367;SDS011;14839;48.106;11.618;2023-11-18T06:22:35;2.90;;;1.90;;
27367;SDS011;14839;48.106;11.618;2023-11-18T06:25:01;2.40;;;1.27;;
27367;SDS011;14839;48.106;11.618;2023-11-18T06:27:32;2.33;;;1.50;;
27367;SDS011;14839;48.106;11.618;2023-11-18T06:29:58;2.73;;;1.53;;
27367;SDS011;14839;48.106;11.618;2023-11-18T06:32:24;3.70;;;2.00;;
27367;SDS011;14839;48.106;11.618;2023-11-18T06:34:51;2.53;;;1.73;;
27367;SDS011;14839;48.106;11.618;2023-11-18T06:37:17;1.70;;;1.40;;
27367;SDS011;14839;48.106;11.618;2023-11-18T06:39:42;2.40;;;1.80;;
27367;SDS011;14839;48.106;11.618;2023-11-18T06:42:10;2.13;;;1.50;;
27367;SDS011;14839;48.106;11.618;2023-11-18T06:44:36;2.27;;;1.40;;
27367;SDS011;14839;48.106;11.618;2023-11-18T06:47:03;2.33;;;1.50;;
27367;SDS011;14839;48.106;11.618;2023-11-18T06:49:30;4.43;;;1.70;;
27367;SDS011;14839;48.106;11.618;2023-11-18T06:51:59;2.00;;;1.40;;
27367;SDS011;14839;48.106;11.618;2023-11-18T06:54:28;2.20;;;1.60;;
27367;SDS011;14839;48.106;11.618;2023-11-18T06:56:58;1.80;;;1.37;;
27367;SDS011;14839;48.106;11.618;2023-11-18T06:59:24;1.47;;;1.37;;
27367;SDS011;14839;48.106;11.618;2023-11-18T07:01:49;3.90;;;1.70;;
27367;SDS011;14839;48.106;11.618;2023-11-18T07:04:15;3.53;;;1.60;;
27367;SDS011;14839;48.106;11.618;2023-11-18T07:06:40;2.43;;;1.57;;
27367;SDS011;14839;48.106;11.618;2023-11-18T07:09:08;2.07;;;1.50;;
27367;SDS011;14839;48.106;11.618;2023-11-18T07:11:45;3.60;;;1.67;;
27367;SDS011;14839;48.106;11.618;2023-11-18T07:14:12;3.67;;;1.77;;
27367;SDS011;14839;48.106;11.618;2023-11-18T07:16:40;3.20;;;1.30;;
27367;SDS011;14839;48.106;11.618;2023-11-18T07:19:06;3.27;;;1.87;;
27367;SDS011;14839;48.106;11.618;2023-11-18T07:21:33;4.10;;;1.90;;
27367;SDS011;14839;48.106;11.618;2023-11-18T07:23:59;3.00;;;1.83;;
27367;SDS011;14839;48.106;11.618;2023-11-18T07:26:25;2.43;;;1.73;;
27367;SDS011;14839;48.106;11.618;2023-11-18T07:28:50;2.43;;;1.63;;
27367;SDS011;14839;48.106;11.618;2023-11-18T07:31:16;2.53;;;1.80;;
27367;SDS011;14839;48.106;11.618;2023-11-18T07:33:44;3.20;;;1.87;;
27367;SDS011;14839;48.106;11.618;2023-11-18T07:36:14;4.73;;;2.03;;
27367;SDS011;14839;48.106;11.618;2023-11-18T07:38:45;3.80;;;2.10;;
27367;SDS011;14839;48.106;11.618;2023-11-18T07:41:11;2.30;;;1.93;;
27367;SDS011;14839;48.106;11.618;2023-11-18T07:43:48;4.27;;;1.70;;
27367;SDS011;14839;48.106;11.618;2023-11-18T07:46:19;4.43;;;1.57;;
27367;SDS011;14839;48.106;11.618;2023-11-18T07:48:47;2.87;;;1.53;;
27367;SDS011;14839;48.106;11.618;2023-11-18T07:51:17;2.07;;;1.70;;
27367;SDS011;14839;48.106;11.618;2023-11-18T07:53:43;2.30;;;1.63;;
27367;SDS011;14839;48.106;11.618;2023-11-18T07:56:09;2.83;;;1.93;;
27367;SDS011;14839;48.106;11.618;2023-11-18T07:58:37;2.47;;;1.77;;
27367;SDS011;14839;48.106;11.618;2023-11-18T08:01:03;4.43;;;1.90;;
27367;SDS011;14839;48.106;11.618;2023-11-18T08:03:33;2.47;;;1.73;;
27367;SDS011;14839;48.106;11.618;2023-11-18T08:05:59;1.90;;;1.50;;
27367;SDS011;14839;48.106;11.618;2023-11-18T08:08:24;5.33;;;1.93;;
27367;SDS011;14839;48.106;11.618;2023-11-18T08:10:50;3.27;;;1.87;;
27367;SDS011;14839;48.106;11.618;2023-11-18T08:13:16;3.27;;;1.90;;
27367;SDS011;14839;48.106;11.618;2023-11-18T08:15:42;4.73;;;2.10;;
27367;SDS011;14839;48.106;11.618;2023-11-18T08:18:10;3.30;;;2.27;;
27367;SDS011;14839;48.106;11.618;2023-11-18T08:20:36;2.33;;;1.60;;
27367;SDS011;14839;48.106;11.618;2023-11-18T08:23:02;3.27;;;1.50;;
27367;SDS011;14839;48.106;11.618;2023-11-18T08:25:29;2.80;;;1.70;;
27367;SDS011;14839;48.106;11.618;2023-11-18T08:27:58;2.57;;;1.60;;
27367;SDS011;14839;48.106;11.618;2023-11-18T08:30:25;2.63;;;1.60;;
27367;SDS011;14839;48.106;11.618;2023-11-18T08:32:51;4.13;;;2.20;;
27367;SDS011;14839;48.106;11.618;2023-11-18T08:35:17;4.23;;;1.80;;
27367;SDS011;14839;48.106;11.618;2023-11-18T08:37:43;1.90;;;1.60;;
27367;SDS011;14839;48.106;11.618;2023-11-18T08:40:10;1.70;;;1.33;;
27367;SDS011;14839;48.106;11.618;2023-11-18T08:42:40;2.33;;;1.43;;
27367;SDS011;14839;48.106;11.618;2023-11-18T08:45:13;2.70;;;1.63;;
27367;SDS011;14839;48.106;11.618;2023-11-18T08:47:47;2.27;;;1.43;;
27367;SDS011;14839;48.106;11.618;2023-11-18T08:50:14;4.30;;;1.57;;
27367;SDS011;14839;48.106;11.618;2023-11-18T08:52:43;1.67;;;1.40;;
27367;SDS011;14839;48.106;11.618;2023-11-18T08:55:29;1.67;;;1.30;;
27367;SDS011;14839;48.106;11.618;2023-11-18T08:58:12;2.00;;;1.30;;
27367;SDS011;14839;48.106;11.618;2023-11-18T09:00:53;1.37;;;1.13;;
27367;SDS011;14839;48.106;11.618;2023-11-18T09:03:22;3.43;;;1.13;;
27367;SDS011;14839;48.106;11.618;2023-11-18T09:06:01;1.60;;;0.97;;
27367;SDS011;14839;48.106;11.618;2023-11-18T09:08:37;2.53;;;1.20;;
27367;SDS011;14839;48.106;11.618;2023-11-18T09:11:05;1.13;;;1.03;;
27367;SDS011;14839;48.106;11.618;2023-11-18T09:13:32;1.70;;;1.10;;
27367;SDS011;14839;48.106;11.618;2023-11-18T09:16:00;1.20;;;1.10;;
27367;SDS011;14839;48.106;11.618;2023-11-18T09:18:30;1.73;;;1.10;;
27367;SDS011;14839;48.106;11.618;2023-11-18T09:20:58;1.40;;;0.97;;
27367;SDS011;14839;48.106;11.618;2023-11-18T09:23:26;3.87;;;1.43;;
27367;SDS011;14839;48.106;11.618;2023-11-18T09:25:52;1.27;;;0.90;;
27367;SDS011;14839;48.106;11.618;2023-11-18T09:28:19;1.23;;;1.03;;
27367;SDS011;14839;48.106;11.618;2023-11-18T09:30:53;2.20;;;0.93;;
27367;SDS011;14839;48.106;11.618;2023-11-18T09:33:19;1.30;;;1.10;;
27367;SDS011;14839;48.106;11.618;2023-11-18T09:36:00;1.10;;;0.90;;
27367;SDS011;14839;48.106;11.618;2023-11-18T09:38:33;1.67;;;1.30;;
27367;SDS011;14839;48.106;11.618;2023-11-18T09:41:03;1.27;;;0.97;;
27367;SDS011;14839;48.106;11.618;2023-11-18T09:43:36;2.17;;;1.20;;
27367;SDS011;14839;48.106;11.618;2023-11-18T09:46:10;1.97;;;1.30;;
27367;SDS011;14839;48.106;11.618;2023-11-18T09:48:48;1.40;;;1.00;;
27367;SDS011;14839;48.106;11.618;2023-11-18T09:51:24;1.43;;;1.07;;
27367;SDS011;14839;48.106;11.618;2023-11-18T09:53:59;2.23;;;1.20;;
27367;SDS011;14839;48.106;11.618;2023-11-18T09:59:25;1.13;;;0.80;;
27367;SDS011;14839;48.106;11.618;2023-11-18T10:01:56;0.90;;;0.90;;
27367;SDS011;14839;48.106;11.618;2023-11-18T10:04:26;1.70;;;1.13;;
27367;SDS011;14839;48.106;11.618;2023-11-18T10:06:56;3.03;;;1.10;;
27367;SDS011;14839;48.106;11.618;2023-11-18T10:09:24;0.90;;;0.90;;
27367;SDS011;14839;48.106;11.618;2023-11-18T10:12:02;1.77;;;1.00;;
27367;SDS011;14839;48.106;11.618;2023-11-18T10:14:35;0.90;;;0.77;;
27367;SDS011;14839;48.106;11.618;2023-11-18T10:17:04;4.30;;;1.13;;
27367;SDS011;14839;48.106;11.618;2023-11-18T10:22:29;2.97;;;1.10;;
27367;SDS011;14839;48.106;11.618;2023-11-18T10:24:57;1.17;;;0.90;;
27367;SDS011;14839;48.106;11.618;2023-11-18T10:27:29;1.33;;;0.80;;
27367;SDS011;14839;48.106;11.618;2023-11-18T10:30:02;1.73;;;1.00;;
27367;SDS011;14839;48.106;11.618;2023-11-18T10:32:29;1.60;;;0.67;;
27367;SDS011;14839;48.106;11.618;2023-11-18T10:35:00;1.73;;;0.67;;
27367;SDS011;14839;48.106;11.618;2023-11-18T10:37:26;3.00;;;0.97;;
27367;SDS011;14839;48.106;11.618;2023-11-18T10:39:55;0.57;;;0.50;;
27367;SDS011;14839;48.106;11.618;2023-11-18T10:42:22;1.10;;;0.90;;
27367;SDS011;14839;48.106;11.618;2023-11-18T10:44:55;0.43;;;0.40;;
27367;SDS011;14839;48.106;11.618;2023-11-18T10:47:27;1.30;;;0.77;;
27367;SDS011;14839;48.106;11.618;2023-11-18T10:49:54;1.93;;;0.80;;
27367;SDS011;14839;48.106;11.618;2023-11-18T10:52:24;1.00;;;0.90;;
27367;SDS011;14839;48.106;11.618;2023-11-18T10:54:59;1.13;;;0.93;;
27367;SDS011;14839;48.106;11.618;2023-11-18T10:57:32;1.00;;;0.60;;
27367;SDS011;14839;48.106;11.618;2023-11-18T11:00:07;1.50;;;0.70;;
27367;SDS011;14839;48.106;11.618;2023-11-18T11:02:40;0.83;;;0.57;;
27367;SDS011;14839;48.106;11.618;2023-11-18T11:05:10;1.77;;;0.57;;
27367;SDS011;14839;48.106;11.618;2023-11-18T11:07:41;1.20;;;0.80;;
27367;SDS011;14839;48.106;11.618;2023-11-18T11:10:08;0.87;;;0.67;;
27367;SDS011;14839;48.106;11.618;2023-11-18T11:12:36;2.87;;;0.67;;
27367;SDS011;14839;48.106;11.618;2023-11-18T11:15:27;1.33;;;0.73;;
27367;SDS011;14839;48.106;11.618;2023-11-18T11:17:58;0.70;;;0.57;;
27367;SDS011;14839;48.106;11.618;2023-11-18T11:20:41;2.23;;;0.70;;
27367;SDS011;14839;48.106;11.618;2023-11-18T11:31:12;3.13;;;0.70;;
27367;SDS011;14839;48.106;11.618;2023-11-18T11:33:46;1.27;;;0.60;;
27367;SDS011;14839;48.106;11.618;2023-11-18T11:36:20;1.10;;;0.50;;
27367;SDS011;14839;48.106;11.618;2023-11-18T11:38:52;0.93;;;0.63;;
27367;SDS011;14839;48.106;11.618;2023-11-18T11:41:21;0.50;;;0.50;;
27367;SDS011;14839;48.106;11.618;2023-11-18T11:43:51;0.87;;;0.37;;
27367;SDS011;14839;48.106;11.618;2023-11-18T11:46:24;2.63;;;0.53;;
27367;SDS011;14839;48.106;11.618;2023-11-18T11:48:58;1.13;;;0.70;;
27367;SDS011;14839;48.106;11.618;2023-11-18T11:52:09;1.00;;;0.50;;
27367;SDS011;14839;48.106;11.618;2023-11-18T11:54:21;2.23;;;0.40;;
27367;SDS011;14839;48.106;11.618;2023-11-18T11:56:55;0.73;;;0.50;;
27367;SDS011;14839;48.106;11.618;2023-11-18T12:02:26;0.50;;;0.43;;
27367;SDS011;14839;48.106;11.618;2023-11-18T12:04:57;4.57;;;0.80;;
27367;SDS011;14839;48.106;11.618;2023-11-18T12:07:27;2.13;;;0.50;;
27367;SDS011;14839;48.106;11.618;2023-11-18T12:09:56;0.60;;;0.57;;
27367;SDS011;14839;48.106;11.618;2023-11-18T12:12:24;1.50;;;0.80;;
27367;SDS011;14839;48.106;11.618;2023-11-18T12:14:55;1.07;;;0.47;;
27367;SDS011;14839;48.106;11.618;2023-11-18T12:17:22;0.80;;;0.53;;
27367;SDS011;14839;48.106;11.618;2023-11-18T12:19:53;0.50;;;0.40;;
27367;SDS011;14839;48.106;11.618;2023-11-18T12:22:24;1.07;;;0.50;;
27367;SDS011;14839;48.106;11.618;2023-11-18T12:30:49;1.77;;;0.70;;
27367;SDS011;14839;48.106;11.618;2023-11-18T12:35:54;1.90;;;0.73;;
27367;SDS011;14839;48.106;11.618;2023-11-18T12:46:59;1.43;;;0.77;;
27367;SDS011;14839;48.106;11.618;2023-11-18T12:49:37;1.50;;;0.70;;
27367;SDS011;14839;48.106;11.618;2023-11-18T12:52:06;0.60;;;0.33;;
27367;SDS011;14839;48.106;11.618;2023-11-18T12:54:33;0.90;;;0.60;;
27367;SDS011;14839;48.106;11.618;2023-11-18T12:57:03;0.80;;;0.63;;
27367;SDS011;14839;48.106;11.618;2023-11-18T12:59:35;1.23;;;0.60;;
27367;SDS011;14839;48.106;11.618;2023-11-18T13:02:01;1.07;;;0.70;;
27367;SDS011;14839;48.106;11.618;2023-11-18T13:04:32;0.50;;;0.50;;
27367;SDS011;14839;48.106;11.618;2023-11-18T13:07:05;2.37;;;0.70;;
27367;SDS011;14839;48.106;11.618;2023-11-18T13:09:33;1.37;;;0.70;;
27367;SDS011;14839;48.106;11.618;2023-11-18T13:12:01;1.00;;;0.70;;
27367;SDS011;14839;48.106;11.618;2023-11-18T13:14:34;0.80;;;0.60;;
27367;SDS011;14839;48.106;11.618;2023-11-18T13:17:04;2.73;;;0.87;;
27367;SDS011;14839;48.106;11.618;2023-11-18T13:19:34;1.90;;;0.63;;
27367;SDS011;14839;48.106;11.618;2023-11-18T13:22:09;1.50;;;0.70;;
27367;SDS011;14839;48.106;11.618;2023-11-18T13:24:39;0.93;;;0.57;;
27367;SDS011;14839;48.106;11.618;2023-11-18T13:27:06;0.60;;;0.50;;
27367;SDS011;14839;48.106;11.618;2023-11-18T13:29:34;1.20;;;0.60;;
27367;SDS011;14839;48.106;11.618;2023-11-18T13:32:01;0.70;;;0.43;;
27367;SDS011;14839;48.106;11.618;2023-11-18T13:34:32;1.03;;;0.60;;
27367;SDS011;14839;48.106;11.618;2023-11-18T13:37:00;0.80;;;0.63;;
27367;SDS011;14839;48.106;11.618;2023-11-18T13:39:26;1.37;;;0.50;;
27367;SDS011;14839;48.106;11.618;2023-11-18T13:41:52;1.27;;;0.80;;
27367;SDS011;14839;48.106;11.618;2023-11-18T13:44:37;1.20;;;0.60;;
27367;SDS011;14839;48.106;11.618;2023-11-18T13:47:09;0.50;;;0.50;;
27367;SDS011;14839;48.106;11.618;2023-11-18T13:49:39;0.63;;;0.63;;
27367;SDS011;14839;48.106;11.618;2023-11-18T13:52:05;1.70;;;0.60;;
27367;SDS011;14839;48.106;11.618;2023-11-18T13:54:34;0.57;;;0.53;;
27367;SDS011;14839;48.106;11.618;2023-11-18T13:57:00;1.10;;;0.90;;
27367;SDS011;14839;48.106;11.618;2023-11-18T13:59:26;0.67;;;0.43;;
27367;SDS011;14839;48.106;11.618;2023-11-18T14:01:53;1.03;;;0.50;;
27367;SDS011;14839;48.106;11.618;2023-11-18T14:04:22;0.37;;;0.33;;
27367;SDS011;14839;48.106;11.618;2023-11-18T14:06:51;1.10;;;0.50;;
27367;SDS011;14839;48.106;11.618;2023-11-18T14:09:18;4.00;;;0.60;;
27367;SDS011;14839;48.106;11.618;2023-11-18T14:11:46;1.40;;;0.33;;
27367;SDS011;14839;48.106;11.618;2023-11-18T14:14:13;2.20;;;0.40;;
27367;SDS011;14839;48.106;11.618;2023-11-18T14:16:40;2.00;;;0.53;;
27367;SDS011;14839;48.106;11.618;2023-11-18T14:19:05;1.13;;;0.63;;
27367;SDS011;14839;48.106;11.618;2023-11-18T14:21:31;3.13;;;1.37;;
27367;SDS011;14839;48.106;11.618;2023-11-18T14:23:57;1.73;;;1.10;;
27367;SDS011;14839;48.106;11.618;2023-11-18T14:26:27;3.13;;;0.80;;
27367;SDS011;14839;48.106;11.618;2023-11-18T14:28:54;1.83;;;0.70;;
27367;SDS011;14839;48.106;11.618;2023-11-18T14:31:20;1.17;;;0.67;;
27367;SDS011;14839;48.106;11.618;2023-11-18T14:33:47;1.93;;;0.73;;
27367;SDS011;14839;48.106;11.618;2023-11-18T14:36:13;2.07;;;0.70;;
27367;SDS011;14839;48.106;11.618;2023-11-18T14:38:40;1.40;;;0.40;;
27367;SDS011;14839;48.106;11.618;2023-11-18T14:41:05;0.67;;;0.40;;
27367;SDS011;14839;48.106;11.618;2023-11-18T14:43:32;1.90;;;0.47;;
27367;SDS011;14839;48.106;11.618;2023-11-18T14:45:59;0.40;;;0.40;;
27367;SDS011;14839;48.106;11.618;2023-11-18T14:48:24;0.30;;;0.30;;
27367;SDS011;14839;48.106;11.618;2023-11-18T14:50:50;0.60;;;0.60;;
27367;SDS011;14839;48.106;11.618;2023-11-18T14:53:16;2.30;;;0.53;;
27367;SDS011;14839;48.106;11.618;2023-11-18T14:55:42;0.87;;;0.47;;
27367;SDS011;14839;48.106;11.618;2023-11-18T14:58:08;2.40;;;0.57;;
27367;SDS011;14839;48.106;11.618;2023-11-18T15:00:37;2.00;;;1.00;;
27367;SDS011;14839;48.106;11.618;2023-11-18T15:03:02;1.00;;;0.80;;
27367;SDS011;14839;48.106;11.618;2023-11-18T15:05:28;1.70;;;0.80;;
27367;SDS011;14839;48.106;11.618;2023-11-18T15:07:56;1.23;;;1.00;;
27367;SDS011;14839;48.106;11.618;2023-11-18T15:10:24;1.47;;;0.50;;
27367;SDS011;14839;48.106;11.618;2023-11-18T15:12:51;3.53;;;1.87;;
27367;SDS011;14839;48.106;11.618;2023-11-18T15:15:23;0.93;;;0.60;;
27367;SDS011;14839;48.106;11.618;2023-11-18T15:17:56;0.93;;;0.77;;
27367;SDS011;14839;48.106;11.618;2023-11-18T15:20:28;0.80;;;0.60;;
27367;SDS011;14839;48.106;11.618;2023-11-18T15:22:54;1.07;;;0.63;;
27367;SDS011;14839;48.106;11.618;2023-11-18T15:25:19;3.87;;;0.60;;
27367;SDS011;14839;48.106;11.618;2023-11-18T15:27:45;0.90;;;0.80;;
27367;SDS011;14839;48.106;11.618;2023-11-18T15:30:12;2.20;;;0.90;;
27367;SDS011;14839;48.106;11.618;2023-11-18T15:32:39;1.97;;;1.20;;
27367;SDS011;14839;48.106;11.618;2023-11-18T15:35:06;1.90;;;0.80;;
27367;SDS011;14839;48.106;11.618;2023-11-18T15:37:39;1.80;;;0.93;;
27367;SDS011;14839;48.106;11.618;2023-11-18T15:40:11;1.13;;;0.83;;
27367;SDS011;14839;48.106;11.618;2023-11-18T15:45:07;1.63;;;1.37;;
27367;SDS011;14839;48.106;11.618;2023-11-18T15:47:37;1.23;;;1.00;;
27367;SDS011;14839;48.106;11.618;2023-11-18T15:50:05;2.77;;;1.07;;
27367;SDS011;14839;48.106;11.618;2023-11-18T15:52:33;3.93;;;1.00;;
27367;SDS011;14839;48.106;11.618;2023-11-18T15:55:00;0.83;;;0.50;;
27367;SDS011;14839;48.106;11.618;2023-11-18T15:57:34;1.80;;;0.80;;
27367;SDS011;14839;48.106;11.618;2023-11-18T16:00:05;1.03;;;0.53;;
27367;SDS011;14839;48.106;11.618;2023-11-18T16:02:40;0.93;;;0.80;;
27367;SDS011;14839;48.106;11.618;2023-11-18T16:05:09;2.37;;;0.77;;
27367;SDS011;14839;48.106;11.618;2023-11-18T16:07:38;1.13;;;0.70;;
27367;SDS011;14839;48.106;11.618;2023-11-18T16:10:05;3.23;;;0.67;;
27367;SDS011;14839;48.106;11.618;2023-11-18T16:12:31;1.63;;;0.80;;
27367;SDS011;14839;48.106;11.618;2023-11-18T16:14:58;1.33;;;0.90;;
27367;SDS011;14839;48.106;11.618;2023-11-18T16:17:23;1.37;;;0.70;;
27367;SDS011;14839;48.106;11.618;2023-11-18T16:19:49;1.13;;;0.90;;
27367;SDS011;14839;48.106;11.618;2023-11-18T16:22:15;4.00;;;0.83;;
27367;SDS011;14839;48.106;11.618;2023-11-18T16:24:41;2.63;;;0.83;;
27367;SDS011;14839;48.106;11.618;2023-11-18T16:27:06;2.63;;;0.80;;
27367;SDS011;14839;48.106;11.618;2023-11-18T16:29:32;3.47;;;1.17;;
27367;SDS011;14839;48.106;11.618;2023-11-18T16:31:57;2.20;;;1.30;;
27367;SDS011;14839;48.106;11.618;2023-11-18T16:34:23;4.13;;;2.20;;
27367;SDS011;14839;48.106;11.618;2023-11-18T16:36:50;2.73;;;1.97;;
27367;SDS011;14839;48.106;11.618;2023-11-18T16:39:21;10.97;;;7.77;;
27367;SDS011;14839;48.106;11.618;2023-11-18T16:41:47;8.23;;;6.20;;
27367;SDS011;14839;48.106;11.618;2023-11-18T16:44:13;15.03;;;10.93;;
27367;SDS011;14839;48.106;11.618;2023-11-18T16:46:39;7.67;;;6.03;;
27367;SDS011;14839;48.106;11.618;2023-11-18T16:49:06;4.83;;;3.60;;
27367;SDS011;14839;48.106;11.618;2023-11-18T16:51:32;5.87;;;3.67;;
27367;SDS011;14839;48.106;11.618;2023-11-18T16:53:58;4.53;;;3.13;;
27367;SDS011;14839;48.106;11.618;2023-11-18T16:56:24;1.93;;;1.70;;
27367;SDS011;14839;48.106;11.618;2023-11-18T16:58:50;4.77;;;2.27;;
27367;SDS011;14839;48.106;11.618;2023-11-18T17:01:15;3.13;;;1.80;;
27367;SDS011;14839;48.106;11.618;2023-11-18T17:03:42;4.63;;;2.30;;
27367;SDS011;14839;48.106;11.618;2023-11-18T17:06:07;4.03;;;2.30;;
27367;SDS011;14839;48.106;11.618;2023-11-18T17:08:33;3.60;;;1.77;;
27367;SDS011;14839;48.106;11.618;2023-11-18T17:10:59;5.30;;;2.43;;
27367;SDS011;14839;48.106;11.618;2023-11-18T17:13:24;4.00;;;1.83;;
27367;SDS011;14839;48.106;11.618;2023-11-18T17:15:51;2.73;;;1.80;;
27367;SDS011;14839;48.106;11.618;2023-11-18T17:18:17;3.77;;;1.50;;
27367;SDS011;14839;48.106;11.618;2023-11-18T17:20:43;3.50;;;1.20;;
27367;SDS011;14839;48.106;11.618;2023-11-18T17:23:08;1.63;;;1.10;;
27367;SDS011;14839;48.106;11.618;2023-11-18T17:25:34;1.03;;;0.93;;
27367;SDS011;14839;48.106;11.618;2023-11-18T17:27:59;1.03;;;0.80;;
27367;SDS011;14839;48.106;11.618;2023-11-18T17:30:29;1.33;;;0.93;;
27367;SDS011;14839;48.106;11.618;2023-11-18T17:33:02;1.27;;;0.97;;
27367;SDS011;14839;48.106;11.618;2023-11-18T17:35:28;9.10;;;1.33;;
27367;SDS011;14839;48.106;11.618;2023-11-18T17:37:54;4.23;;;2.03;;
27367;SDS011;14839;48.106;11.618;2023-11-18T17:40:20;2.17;;;1.03;;
27367;SDS011;14839;48.106;11.618;2023-11-18T17:42:46;2.57;;;1.77;;
27367;SDS011;14839;48.106;11.618;2023-11-18T17:45:13;2.10;;;1.20;;
27367;SDS011;14839;48.106;11.618;2023-11-18T17:47:42;2.33;;;1.70;;
27367;SDS011;14839;48.106;11.618;2023-11-18T17:50:09;4.07;;;1.03;;
27367;SDS011;14839;48.106;11.618;2023-11-18T17:52:38;1.67;;;0.90;;
27367;SDS011;14839;48.106;11.618;2023-11-18T17:55:17;1.40;;;0.90;;
27367;SDS011;14839;48.106;11.618;2023-11-18T17:57:43;1.33;;;0.93;;
27367;SDS011;14839;48.106;11.618;2023-11-18T18:00:09;1.23;;;1.00;;
27367;SDS011;14839;48.106;11.618;2023-11-18T18:02:44;2.33;;;1.17;;
27367;SDS011;14839;48.106;11.618;2023-11-18T18:05:10;2.53;;;0.73;;
27367;SDS011;14839;48.106;11.618;2023-11-18T18:07:38;1.70;;;0.70;;
27367;SDS011;14839;48.106;11.618;2023-11-18T18:10:05;1.73;;;0.87;;
27367;SDS011;14839;48.106;11.618;2023-11-18T18:12:31;1.33;;;0.60;;
27367;SDS011;14839;48.106;11.618;2023-11-18T18:14:57;1.63;;;0.70;;
27367;SDS011;14839;48.106;11.618;2023-11-18T18:17:23;1.57;;;0.87;;
27367;SDS011;14839;48.106;11.618;2023-11-18T18:19:49;0.90;;;0.77;;
27367;SDS011;14839;48.106;11.618;2023-11-18T18:22:15;1.87;;;0.90;;
27367;SDS011;14839;48.106;11.618;2023-11-18T18:24:41;1.43;;;0.90;;
27367;SDS011;14839;48.106;11.618;2023-11-18T18:27:10;1.20;;;1.00;;
27367;SDS011;14839;48.106;11.618;2023-11-18T18:30:06;4.70;;;1.27;;
27367;SDS011;14839;48.106;11.618;2023-11-18T18:32:32;1.37;;;0.80;;
27367;SDS011;14839;48.106;11.618;2023-11-18T18:34:57;3.00;;;1.10;;
27367;SDS011;14839;48.106;11.618;2023-11-18T18:37:25;3.17;;;1.70;;
27367;SDS011;14839;48.106;11.618;2023-11-18T18:39:54;2.17;;;1.60;;
27367;SDS011;14839;48.106;11.618;2023-11-18T18:42:20;3.97;;;2.73;;
27367;SDS011;14839;48.106;11.618;2023-11-18T18:44:46;1.70;;;1.27;;
27367;SDS011;14839;48.106;11.618;2023-11-18T18:47:12;3.80;;;0.83;;
27367;SDS011;14839;48.106;11.618;2023-11-18T18:49:38;2.43;;;1.63;;
27367;SDS011;14839;48.106;11.618;2023-11-18T18:52:04;3.13;;;1.43;;
27367;SDS011;14839;48.106;11.618;2023-11-18T18:54:30;1.27;;;0.83;;
27367;SDS011;14839;48.106;11.618;2023-11-18T18:56:57;1.37;;;0.90;;
27367;SDS011;14839;48.106;11.618;2023-11-18T18:59:23;1.70;;;0.90;;
27367;SDS011;14839;48.106;11.618;2023-11-18T19:01:48;0.80;;;0.60;;
27367;SDS011;14839;48.106;11.618;2023-11-18T19:04:15;0.53;;;0.47;;
27367;SDS011;14839;48.106;11.618;2023-11-18T19:06:41;1.53;;;0.70;;
27367;SDS011;14839;48.106;11.618;2023-11-18T19:09:08;1.50;;;0.60;;
27367;SDS011;14839;48.106;11.618;2023-11-18T19:11:37;1.43;;;0.63;;
27367;SDS011;14839;48.106;11.618;2023-11-18T19:14:03;2.07;;;0.93;;
27367;SDS011;14839;48.106;11.618;2023-11-18T19:16:29;2.73;;;0.97;;
27367;SDS011;14839;48.106;11.618;2023-11-18T19:18:55;0.73;;;0.53;;
27367;SDS011;14839;48.106;11.618;2023-11-18T19:21:21;0.90;;;0.77;;
27367;SDS011;14839;48.106;11.618;2023-11-18T19:23:50;2.20;;;1.00;;
27367;SDS011;14839;48.106;11.618;2023-11-18T19:26:16;1.20;;;0.70;;
27367;SDS011;14839;48.106;11.618;2023-11-18T19:28:42;0.80;;;0.50;;
27367;SDS011;14839;48.106;11.618;2023-11-18T19:31:11;1.63;;;0.77;;
27367;SDS011;14839;48.106;11.618;2023-11-18T19:33:36;0.90;;;0.70;;
27367;SDS011;14839;48.106;11.618;2023-11-18T19:36:03;2.07;;;1.40;;
27367;SDS011;14839;48.106;11.618;2023-11-18T19:38:29;1.40;;;0.70;;
27367;SDS011;14839;48.106;11.618;2023-11-18T19:40:55;0.50;;;0.40;;
27367;SDS011;14839;48.106;11.618;2023-11-18T19:43:21;2.07;;;0.60;;
27367;SDS011;14839;48.106;11.618;2023-11-18T19:45:47;0.40;;;0.30;;
27367;SDS011;14839;48.106;11.618;2023-11-18T19:48:16;0.83;;;0.40;;
27367;SDS011;14839;48.106;11.618;2023-11-18T19:50:42;1.03;;;0.57;;
27367;SDS011;14839;48.106;11.618;2023-11-18T19:53:09;1.50;;;0.43;;
27367;SDS011;14839;48.106;11.618;2023-11-18T19:55:34;0.70;;;0.50;;
27367;SDS011;14839;48.106;11.618;2023-11-18T19:58:01;0.80;;;0.50;;
27367;SDS011;14839;48.106;11.618;2023-11-18T20:00:28;0.60;;;0.43;;
27367;SDS011;14839;48.106;11.618;2023-11-18T20:02:54;0.93;;;0.53;;
27367;SDS011;14839;48.106;11.618;2023-11-18T20:05:20;1.50;;;0.87;;
27367;SDS011;14839;48.106;11.618;2023-11-18T20:07:46;1.97;;;0.70;;
27367;SDS011;14839;48.106;11.618;2023-11-18T20:10:12;0.50;;;0.40;;
27367;SDS011;14839;48.106;11.618;2023-11-18T20:12:38;8.23;;;1.80;;
27367;SDS011;14839;48.106;11.618;2023-11-18T20:15:04;1.13;;;0.53;;
27367;SDS011;14839;48.106;11.618;2023-11-18T20:17:36;2.80;;;0.40;;